createdAt,value
2019-02-23T00:03:06.333Z,0.00
2019-02-23T00:03:59.469Z,0.00
2019-02-23T00:04:59.548Z,0.00
2019-02-23T00:05:59.497Z,0.00
2019-02-23T00:06:59.283Z,0.00
2019-02-23T00:08:06.380Z,0.00
2019-02-23T00:11:22.777Z,0.00
2019-02-23T00:12:11.064Z,0.00
2019-02-23T00:13:11.062Z,0.00
2019-02-23T00:14:22.035Z,0.00
2019-02-23T00:15:10.866Z,0.00
2019-02-23T00:16:12.713Z,0.00
2019-02-23T00:17:10.799Z,0.00
2019-02-23T00:18:12.719Z,0.00
2019-02-23T00:19:10.979Z,0.00
2019-02-23T00:20:10.907Z,0.00
2019-02-23T00:21:10.902Z,0.00
2019-02-23T00:22:10.897Z,0.00
2019-02-23T00:23:10.905Z,0.00
2019-02-23T00:24:10.766Z,0.00
2019-02-23T00:25:10.799Z,0.00
2019-02-23T00:26:10.655Z,0.00
2019-02-23T00:27:10.716Z,0.00
2019-02-23T00:28:10.685Z,0.00
2019-02-23T00:29:10.668Z,0.00
2019-02-23T00:30:13.253Z,0.00
2019-02-23T00:31:10.611Z,0.00
2019-02-23T00:32:10.497Z,0.00
2019-02-23T00:33:10.757Z,0.00
2019-02-23T00:34:10.654Z,0.00
2019-02-23T00:35:10.707Z,0.00
2019-02-23T00:36:10.532Z,0.00
2019-02-23T00:37:12.316Z,0.00
2019-02-23T00:38:10.484Z,0.00
2019-02-23T00:39:11.329Z,0.00
2019-02-23T00:40:10.605Z,0.00
2019-02-23T00:41:10.461Z,0.00
2019-02-23T00:42:11.041Z,0.00
2019-02-23T00:43:31.545Z,0.00
2019-02-23T00:44:10.485Z,0.00
2019-02-23T00:45:10.434Z,0.00
2019-02-23T00:46:12.648Z,0.00
2019-02-23T00:48:35.792Z,0.00
2019-02-23T00:49:36.587Z,0.00
2019-02-23T00:51:31.143Z,0.00
2019-02-23T00:52:28.652Z,0.00
2019-02-23T00:53:28.540Z,0.00
2019-02-23T00:54:29.405Z,0.00
2019-02-23T00:59:26.043Z,0.00
2019-02-23T01:00:16.156Z,0.00
2019-02-23T01:01:16.190Z,0.00
2019-02-23T01:02:16.053Z,0.00
2019-02-23T01:03:16.144Z,0.00
2019-02-23T01:04:16.952Z,0.00
2019-02-23T01:05:16.116Z,0.00
2019-02-23T01:06:16.102Z,0.00
2019-02-23T01:07:16.295Z,0.00
2019-02-23T01:08:16.188Z,0.00
2019-02-23T01:09:15.949Z,0.00
2019-02-23T01:10:16.078Z,0.00
2019-02-23T01:11:16.110Z,0.00
2019-02-23T01:12:16.531Z,0.00
2019-02-23T01:13:15.822Z,0.00
2019-02-23T01:14:15.843Z,0.00
2019-02-23T01:15:15.999Z,0.00
2019-02-23T01:16:15.864Z,0.00
2019-02-23T01:17:17.669Z,0.00
2019-02-23T01:18:18.461Z,0.00
2019-02-23T01:19:15.796Z,0.00
2019-02-23T01:20:16.145Z,0.00
2019-02-23T01:21:16.587Z,0.00
2019-02-23T01:22:15.922Z,0.00
2019-02-23T01:23:15.734Z,0.00
2019-02-23T01:24:17.419Z,0.00
2019-02-23T01:25:15.777Z,0.00
2019-02-23T01:26:15.624Z,0.00
2019-02-23T01:27:16.702Z,0.00
2019-02-23T01:28:15.748Z,0.00
2019-02-23T01:29:15.627Z,0.00
2019-02-23T01:30:15.626Z,0.00
2019-02-23T01:33:13.631Z,0.00
2019-02-23T01:33:55.795Z,0.00
2019-02-23T01:37:16.829Z,0.00
2019-02-23T01:38:16.682Z,0.00
2019-02-23T01:39:18.437Z,0.00
2019-02-23T01:40:16.634Z,0.00
2019-02-23T01:41:16.656Z,0.00
2019-02-23T01:42:16.550Z,0.00
2019-02-23T01:43:17.763Z,0.00
2019-02-23T01:44:16.499Z,0.00
2019-02-23T01:45:16.760Z,0.00
2019-02-23T01:46:17.455Z,0.00
2019-02-23T01:47:16.473Z,0.00
2019-02-23T01:48:17.444Z,0.00
2019-02-23T01:49:17.061Z,0.00
2019-02-23T01:50:17.051Z,0.00
2019-02-23T01:51:17.017Z,0.00
2019-02-23T01:52:18.987Z,0.00
2019-02-23T01:53:16.509Z,0.00
2019-02-23T01:54:16.928Z,0.00
2019-02-23T01:55:16.485Z,0.00
2019-02-23T01:56:17.234Z,0.00
2019-02-23T01:57:18.982Z,0.00
2019-02-23T01:58:17.105Z,0.00
2019-02-23T01:59:16.463Z,0.00
2019-02-23T02:00:17.069Z,0.00
2019-02-23T02:01:16.257Z,0.00
2019-02-23T02:02:19.012Z,0.00
2019-02-23T02:03:16.349Z,0.00
2019-02-23T02:04:16.315Z,0.00
2019-02-23T02:05:16.127Z,0.00
2019-02-23T02:06:16.966Z,0.00
2019-02-23T02:07:17.239Z,0.00
2019-02-23T02:08:16.233Z,0.00
2019-02-23T02:09:16.783Z,0.00
2019-02-23T02:10:19.131Z,0.00
2019-02-23T02:11:17.054Z,0.00
2019-02-23T02:12:16.138Z,0.00
2019-02-23T02:13:16.079Z,0.00
2019-02-23T02:14:17.546Z,0.00
2019-02-23T02:15:18.518Z,0.00
2019-02-23T02:16:16.144Z,0.00
2019-02-23T02:17:15.998Z,0.00
2019-02-23T02:18:16.478Z,0.00
2019-02-23T02:19:16.094Z,0.00
2019-02-23T02:20:16.583Z,0.00
2019-02-23T02:21:24.913Z,0.00
2019-02-23T02:23:09.190Z,0.00
2019-02-23T02:24:13.767Z,0.00
2019-02-23T02:25:09.233Z,0.00
2019-02-23T02:26:09.193Z,0.00
2019-02-23T02:29:29.048Z,0.00
2019-02-23T02:30:28.496Z,0.00
2019-02-23T02:31:28.465Z,0.00
2019-02-23T02:32:28.527Z,0.00
2019-02-23T02:33:28.408Z,0.00
2019-02-23T02:34:28.476Z,0.00
2019-02-23T02:35:30.239Z,0.00
2019-02-23T02:36:28.462Z,0.00
2019-02-23T02:37:28.543Z,0.00
2019-02-23T02:38:28.371Z,0.00
2019-02-23T02:39:28.362Z,0.00
2019-02-23T02:40:28.296Z,0.00
2019-02-23T02:41:28.215Z,0.00
2019-02-23T02:42:31.081Z,0.00
2019-02-23T02:43:29.175Z,0.00
2019-02-23T02:44:28.318Z,0.00
2019-02-23T02:45:28.258Z,0.00
2019-02-23T02:46:28.169Z,0.00
2019-02-23T02:47:28.272Z,0.00
2019-02-23T02:48:28.166Z,0.00
2019-02-23T02:49:28.180Z,0.00
2019-02-23T02:50:28.028Z,0.00
2019-02-23T02:51:28.004Z,0.00
2019-02-23T02:52:28.115Z,0.00
2019-02-23T02:53:28.587Z,0.00
2019-02-23T02:54:28.177Z,0.00
2019-02-23T02:55:27.868Z,0.00
2019-02-23T02:56:28.526Z,0.00
2019-02-23T02:57:28.023Z,0.00
2019-02-23T02:58:27.956Z,0.00
2019-02-23T02:59:32.768Z,0.00
2019-02-23T03:00:32.624Z,0.00
2019-02-23T03:01:27.981Z,0.00
2019-02-23T03:02:27.982Z,0.00
2019-02-23T03:03:27.820Z,0.00
2019-02-23T03:04:28.057Z,0.00
2019-02-23T03:05:27.996Z,0.00
2019-02-23T03:06:27.731Z,0.00
2019-02-23T03:07:28.614Z,0.00
2019-02-23T03:08:27.649Z,0.00
2019-02-23T03:09:27.610Z,0.00
2019-02-23T03:10:27.825Z,0.00
2019-02-23T03:11:27.944Z,0.00
2019-02-23T03:12:27.890Z,0.00
2019-02-23T03:13:27.594Z,0.00
2019-02-23T03:14:27.677Z,0.00
2019-02-23T03:15:27.786Z,0.00
2019-02-23T03:16:29.617Z,0.00
2019-02-23T03:17:28.124Z,0.00
2019-02-23T03:18:38.045Z,0.00
2019-02-23T03:19:27.597Z,0.00
2019-02-23T03:20:36.615Z,0.00
2019-02-23T03:21:27.561Z,0.00
2019-02-23T03:22:29.968Z,0.00
2019-02-23T03:23:27.518Z,0.00
2019-02-23T03:24:27.351Z,0.00
2019-02-23T03:25:27.316Z,0.00
2019-02-23T03:26:28.095Z,0.00
2019-02-23T03:27:28.102Z,0.00
2019-02-23T03:28:27.554Z,0.00
2019-02-23T03:29:27.375Z,0.00
2019-02-23T03:30:27.357Z,0.00
2019-02-23T03:31:28.279Z,0.00
2019-02-23T03:32:27.307Z,0.00
2019-02-23T03:33:27.438Z,0.00
2019-02-23T03:34:27.265Z,0.00
2019-02-23T03:35:27.409Z,0.00
2019-02-23T03:36:27.183Z,0.00
2019-02-23T03:37:27.137Z,0.00
2019-02-23T03:38:27.278Z,0.00
2019-02-23T03:39:26.991Z,0.00
2019-02-23T03:40:27.101Z,0.00
2019-02-23T03:41:27.145Z,0.00
2019-02-23T03:42:27.108Z,0.00
2019-02-23T03:43:27.364Z,0.00
2019-02-23T03:44:27.140Z,0.00
2019-02-23T03:45:27.094Z,0.00
2019-02-23T03:46:26.881Z,0.00
2019-02-23T03:47:27.126Z,0.00
2019-02-23T03:48:27.768Z,0.00
2019-02-23T03:49:27.078Z,0.00
2019-02-23T03:50:29.558Z,0.00
2019-02-23T03:51:27.061Z,0.00
2019-02-23T03:52:26.796Z,0.00
2019-02-23T03:53:26.840Z,0.00
2019-02-23T03:54:26.803Z,0.00
2019-02-23T03:55:26.765Z,0.00
2019-02-23T03:56:26.849Z,0.00
2019-02-23T03:57:26.756Z,0.00
2019-02-23T03:58:27.106Z,0.00
2019-02-23T03:59:31.563Z,0.00
2019-02-23T04:00:26.662Z,0.00
2019-02-23T04:01:26.810Z,0.00
2019-02-23T04:02:26.738Z,0.00
2019-02-23T04:03:26.674Z,0.00
2019-02-23T04:04:26.636Z,0.00
2019-02-23T04:05:26.726Z,0.00
2019-02-23T04:06:26.730Z,0.00
2019-02-23T04:07:26.602Z,0.00
2019-02-23T04:08:26.643Z,0.00
2019-02-23T04:09:26.640Z,0.00
2019-02-23T04:10:26.408Z,0.00
2019-02-23T04:11:26.662Z,0.00
2019-02-23T04:12:26.398Z,0.00
2019-02-23T04:13:26.508Z,0.00
2019-02-23T04:14:26.541Z,0.00
2019-02-23T04:15:26.358Z,0.00
2019-02-23T04:16:26.407Z,0.00
2019-02-23T04:17:33.068Z,0.00
2019-02-23T04:18:26.423Z,0.00
2019-02-23T04:19:26.465Z,0.00
2019-02-23T04:20:27.069Z,0.00
2019-02-23T04:21:28.082Z,0.00
2019-02-23T04:22:26.342Z,0.00
2019-02-23T04:23:26.234Z,0.00
2019-02-23T04:24:26.932Z,0.00
2019-02-23T04:25:27.101Z,0.00
2019-02-23T04:26:26.181Z,0.00
2019-02-23T04:27:28.063Z,0.00
2019-02-23T04:28:27.143Z,0.00
2019-02-23T04:29:26.231Z,0.00
2019-02-23T04:30:26.176Z,0.00
2019-02-23T04:31:33.143Z,0.00
2019-02-23T04:32:26.045Z,0.00
2019-02-23T04:33:27.032Z,0.00
2019-02-23T04:34:36.678Z,0.00
2019-02-23T04:35:26.536Z,0.00
2019-02-23T04:36:25.984Z,0.00
2019-02-23T04:37:26.029Z,0.00
2019-02-23T04:38:26.021Z,0.00
2019-02-23T04:39:26.498Z,0.00
2019-02-23T04:40:28.745Z,0.00
2019-02-23T04:41:26.010Z,0.00
2019-02-23T04:42:25.874Z,0.00
2019-02-23T04:43:25.857Z,0.00
2019-02-23T04:44:25.850Z,0.00
2019-02-23T04:45:25.876Z,0.00
2019-02-23T04:46:25.817Z,0.00
2019-02-23T04:47:25.982Z,0.00
2019-02-23T04:48:25.857Z,0.00
2019-02-23T04:49:26.157Z,0.00
2019-02-23T04:50:25.864Z,0.00
2019-02-23T04:51:28.739Z,0.00
2019-02-23T04:52:25.756Z,0.00
2019-02-23T04:53:26.543Z,0.00
2019-02-23T04:54:25.808Z,0.00
2019-02-23T04:55:25.762Z,0.00
2019-02-23T04:56:25.636Z,0.00
2019-02-23T04:57:25.745Z,0.00
2019-02-23T04:58:25.733Z,0.00
2019-02-23T04:59:27.649Z,0.00
2019-02-23T05:00:27.184Z,0.00
2019-02-23T05:01:25.468Z,0.00
2019-02-23T05:02:25.671Z,0.00
2019-02-23T05:03:28.196Z,0.00
2019-02-23T05:04:25.630Z,0.00
2019-02-23T05:05:25.416Z,0.00
2019-02-23T05:06:25.503Z,0.00
2019-02-23T05:07:25.449Z,0.00
2019-02-23T05:08:25.491Z,0.00
2019-02-23T05:09:25.382Z,0.00
2019-02-23T05:10:25.521Z,0.00
2019-02-23T05:12:25.395Z,4.00
2019-02-23T05:13:25.285Z,4.00
2019-02-23T05:14:25.386Z,4.00
2019-02-23T05:15:26.134Z,4.00
2019-02-23T05:16:26.158Z,4.00
2019-02-23T05:17:25.416Z,4.00
2019-02-23T05:18:25.340Z,8.00
2019-02-23T05:19:28.070Z,4.00
2019-02-23T05:20:26.046Z,8.00
2019-02-23T05:21:26.818Z,8.00
2019-02-23T05:22:25.128Z,8.00
2019-02-23T05:23:25.131Z,8.00
2019-02-23T05:24:25.249Z,12.00
2019-02-23T05:25:46.275Z,12.00
2019-02-23T05:26:26.651Z,12.00
2019-02-23T05:27:29.613Z,12.00
2019-02-23T05:28:25.107Z,16.00
2019-02-23T05:29:25.067Z,16.00
2019-02-23T05:30:25.587Z,20.00
2019-02-23T05:31:29.534Z,24.00
2019-02-23T05:32:25.009Z,28.00
2019-02-23T05:33:24.976Z,32.00
2019-02-23T05:34:24.971Z,36.00
2019-02-23T05:35:26.545Z,36.00
2019-02-23T05:36:24.917Z,40.00
2019-02-23T05:37:29.613Z,44.00
2019-02-23T05:38:24.881Z,44.00
2019-02-23T05:39:24.888Z,48.00
2019-02-23T05:40:25.520Z,48.00
2019-02-23T05:41:24.809Z,60.00
2019-02-23T05:42:24.865Z,60.00
2019-02-23T05:43:24.942Z,68.00
2019-02-23T05:44:24.864Z,76.00
2019-02-23T05:45:29.596Z,88.00
2019-02-23T05:46:24.761Z,100.00
2019-02-23T05:47:24.747Z,116.00
2019-02-23T05:48:24.706Z,120.00
2019-02-23T05:49:24.715Z,124.00
2019-02-23T05:50:24.603Z,140.00
2019-02-23T05:51:25.589Z,152.00
2019-02-23T05:52:24.498Z,156.00
2019-02-23T05:53:38.996Z,164.00
2019-02-23T05:54:24.481Z,176.00
2019-02-23T05:55:24.622Z,172.00
2019-02-23T05:56:24.502Z,168.00
2019-02-23T05:57:24.537Z,176.00
2019-02-23T05:58:24.481Z,172.00
2019-02-23T05:59:26.006Z,188.00
2019-02-23T06:00:25.112Z,208.00
2019-02-23T06:01:24.322Z,208.00
2019-02-23T06:02:27.121Z,240.00
2019-02-23T06:03:24.417Z,232.00
2019-02-23T06:04:24.667Z,248.00
2019-02-23T06:05:27.107Z,256.00
2019-02-23T06:06:24.485Z,280.00
2019-02-23T06:07:27.242Z,288.00
2019-02-23T06:08:27.086Z,316.00
2019-02-23T06:09:24.286Z,320.00
2019-02-23T06:10:24.186Z,340.00
2019-02-23T06:12:25.075Z,352.00
2019-02-23T06:13:25.390Z,380.00
2019-02-23T06:14:26.032Z,364.00
2019-02-23T06:15:26.166Z,396.00
2019-02-23T06:16:24.132Z,416.00
2019-02-23T06:17:25.083Z,428.00
2019-02-23T06:18:27.219Z,456.00
2019-02-23T06:19:25.801Z,464.00
2019-02-23T06:20:24.055Z,472.00
2019-02-23T06:21:24.310Z,504.00
2019-02-23T06:22:23.935Z,500.00
2019-02-23T06:23:26.615Z,528.00
2019-02-23T06:24:24.086Z,544.00
2019-02-23T06:25:30.847Z,564.00
2019-02-23T06:26:24.083Z,564.00
2019-02-23T06:27:23.921Z,576.00
2019-02-23T06:28:23.933Z,600.00
2019-02-23T06:29:28.693Z,648.00
2019-02-23T06:30:23.841Z,636.00
2019-02-23T06:31:26.772Z,648.00
2019-02-23T06:32:23.944Z,700.00
2019-02-23T06:33:23.846Z,680.00
2019-02-23T06:34:23.877Z,680.00
2019-02-23T06:35:24.648Z,696.00
2019-02-23T06:36:23.860Z,620.00
2019-02-23T06:37:23.721Z,544.00
2019-02-23T06:38:24.825Z,524.00
2019-02-23T06:39:23.798Z,516.00
2019-02-23T06:40:28.548Z,544.00
2019-02-23T06:41:28.610Z,576.00
2019-02-23T06:42:24.786Z,596.00
2019-02-23T06:43:24.964Z,620.00
2019-02-23T06:44:23.674Z,660.00
2019-02-23T06:45:34.185Z,728.00
2019-02-23T06:46:23.669Z,832.00
2019-02-23T06:47:23.558Z,876.00
2019-02-23T06:48:25.019Z,972.00
2019-02-23T06:49:24.079Z,1028.00
2019-02-23T06:50:25.192Z,1136.00
2019-02-23T06:51:23.526Z,1068.00
2019-02-23T06:52:23.456Z,1084.00
2019-02-23T06:53:23.481Z,1108.00
2019-02-23T06:54:38.253Z,1124.00
2019-02-23T06:55:25.166Z,1272.00
2019-02-23T06:57:25.149Z,1292.00
2019-02-23T06:58:23.411Z,1332.00
2019-02-23T06:59:23.477Z,1288.00
2019-02-23T07:00:25.236Z,1436.00
2019-02-23T07:01:23.406Z,1416.00
2019-02-23T07:02:24.117Z,1600.00
2019-02-23T07:03:24.302Z,1420.00
2019-02-23T07:04:23.394Z,1456.00
2019-02-23T07:05:23.429Z,1456.00
2019-02-23T07:06:25.214Z,1472.00
2019-02-23T07:07:23.209Z,1428.00
2019-02-23T07:08:25.289Z,1276.00
2019-02-23T07:09:23.227Z,1372.00
2019-02-23T07:10:34.210Z,1308.00
2019-02-23T07:12:24.224Z,1356.00
2019-02-23T07:13:29.676Z,1384.00
2019-02-23T07:14:23.233Z,1544.00
2019-02-23T07:15:27.506Z,1448.00
2019-02-23T07:16:22.987Z,1608.00
2019-02-23T07:17:27.637Z,1564.00
2019-02-23T07:18:27.736Z,1552.00
2019-02-23T07:19:23.126Z,1652.00
2019-02-23T07:20:24.734Z,1420.00
2019-02-23T07:21:23.044Z,1780.00
2019-02-23T07:22:24.705Z,1620.00
2019-02-23T07:23:22.929Z,1636.00
2019-02-23T07:24:25.633Z,1604.00
2019-02-23T07:25:23.011Z,1696.00
2019-02-23T07:26:22.915Z,1624.00
2019-02-23T07:27:24.582Z,1860.00
2019-02-23T07:28:23.224Z,1872.00
2019-02-23T07:29:24.602Z,1980.00
2019-02-23T07:30:22.774Z,1948.00
2019-02-23T07:31:23.666Z,1976.00
2019-02-23T07:32:24.726Z,1880.00
2019-02-23T07:33:32.864Z,1860.00
2019-02-23T07:34:22.846Z,2076.00
2019-02-23T07:35:23.818Z,1976.00
2019-02-23T07:36:22.775Z,2120.00
2019-02-23T07:37:23.613Z,2112.00
2019-02-23T07:38:44.568Z,2036.00
2019-02-23T07:40:37.316Z,2204.00
2019-02-23T07:41:27.210Z,2220.00
2019-02-23T07:42:22.665Z,2312.00
2019-02-23T07:43:24.144Z,2400.00
2019-02-23T07:44:22.771Z,2120.00
2019-02-23T07:45:22.712Z,2192.00
2019-02-23T07:46:22.486Z,2208.00
2019-02-23T07:47:29.106Z,2292.00
2019-02-23T07:48:22.641Z,2088.00
2019-02-23T07:49:27.305Z,2272.00
2019-02-23T07:50:24.341Z,2588.00
2019-02-23T07:52:31.215Z,2564.00
2019-02-23T07:54:40.303Z,2820.00
2019-02-23T07:55:17.570Z,3012.00
2019-02-23T07:58:44.711Z,3076.00
2019-02-23T07:59:38.508Z,3164.00
2019-02-23T08:00:38.556Z,3088.00
2019-02-23T08:01:38.583Z,3028.00
2019-02-23T08:02:38.443Z,2928.00
2019-02-23T08:03:41.228Z,3268.00
2019-02-23T08:04:39.421Z,3132.00
2019-02-23T08:05:39.485Z,3396.00
2019-02-23T08:06:40.324Z,3232.00
2019-02-23T08:07:39.900Z,3440.00
2019-02-23T08:08:38.375Z,3080.00
2019-02-23T08:09:38.301Z,3304.00
2019-02-23T08:10:59.273Z,3260.00
2019-02-23T08:11:40.701Z,3356.00
2019-02-23T08:12:40.866Z,3508.00
2019-02-23T08:13:49.164Z,3780.00
2019-02-23T08:14:38.423Z,3740.00
2019-02-23T08:15:38.736Z,3604.00
2019-02-23T08:16:38.242Z,4456.00
2019-02-23T08:17:38.416Z,4132.00
2019-02-23T08:18:38.176Z,4412.00
2019-02-23T08:19:38.800Z,3900.00
2019-02-23T08:21:05.790Z,3972.00
2019-02-23T08:21:38.251Z,4536.00
2019-02-23T08:22:38.748Z,4304.00
2019-02-23T08:23:39.774Z,4584.00
2019-02-23T08:24:38.201Z,4420.00
2019-02-23T08:25:38.122Z,4908.00
2019-02-23T08:26:38.129Z,5236.00
2019-02-23T08:27:38.692Z,4520.00
2019-02-23T08:28:38.139Z,4920.00
2019-02-23T08:29:38.435Z,4984.00
2019-02-23T08:30:44.765Z,4948.00
2019-02-23T08:31:37.967Z,4368.00
2019-02-23T08:32:37.883Z,4132.00
2019-02-23T08:33:37.909Z,5748.00
2019-02-23T08:34:39.731Z,4632.00
2019-02-23T08:35:43.016Z,5600.00
2019-02-23T08:36:37.899Z,5656.00
2019-02-23T08:37:38.920Z,4980.00
2019-02-23T08:38:38.136Z,4876.00
2019-02-23T08:39:37.927Z,4824.00
2019-02-23T08:40:37.784Z,4920.00
2019-02-23T08:41:37.866Z,4548.00
2019-02-23T08:42:44.203Z,4508.00
2019-02-23T08:43:48.638Z,4852.00
2019-02-23T08:45:37.647Z,4204.00
2019-02-23T08:46:40.433Z,4796.00
2019-02-23T08:47:38.357Z,4580.00
2019-02-23T08:48:38.395Z,4248.00
2019-02-23T08:49:37.718Z,4492.00
2019-02-23T08:50:38.342Z,5208.00
2019-02-23T08:52:48.165Z,4480.00
2019-02-23T08:53:39.318Z,4464.00
2019-02-23T08:55:00.368Z,4728.00
2019-02-23T08:55:38.355Z,5240.00
2019-02-23T08:56:37.631Z,4948.00
2019-02-23T08:57:37.590Z,4616.00
2019-02-23T08:58:37.521Z,4780.00
2019-02-23T08:59:38.343Z,5228.00
2019-02-23T09:00:44.365Z,5756.00
2019-02-23T09:01:59.357Z,5092.00
2019-02-23T09:02:44.235Z,5756.00
2019-02-23T09:03:38.212Z,5876.00
2019-02-23T09:04:39.332Z,6080.00
2019-02-23T09:06:40.504Z,5432.00
2019-02-23T09:08:37.390Z,5332.00
2019-02-23T09:09:37.956Z,5092.00
2019-02-23T09:10:38.458Z,6444.00
2019-02-23T09:14:06.303Z,6616.00
2019-02-23T09:17:44.276Z,8284.00
2019-02-23T09:18:29.064Z,7496.00
2019-02-23T09:19:28.431Z,8492.00
2019-02-23T09:20:29.694Z,7704.00
2019-02-23T09:21:43.343Z,6572.00
2019-02-23T09:22:31.120Z,7640.00
2019-02-23T09:23:28.432Z,7180.00
2019-02-23T09:24:29.285Z,6944.00
2019-02-23T09:25:28.313Z,7480.00
2019-02-23T09:26:28.309Z,9352.00
2019-02-23T09:27:43.091Z,10368.00
2019-02-23T09:28:31.253Z,8200.00
2019-02-23T09:29:31.215Z,8484.00
2019-02-23T09:30:30.185Z,9660.00
2019-02-23T09:31:28.130Z,7956.00
2019-02-23T09:32:28.221Z,11312.00
2019-02-23T09:33:28.489Z,9512.00
2019-02-23T09:34:34.671Z,8076.00
2019-02-23T09:35:28.206Z,12728.00
2019-02-23T09:36:28.136Z,18912.00
2019-02-23T09:37:42.725Z,9836.00
2019-02-23T09:38:28.820Z,11380.00
2019-02-23T09:39:32.604Z,15032.00
2019-02-23T09:40:28.144Z,12728.00
2019-02-23T09:41:32.730Z,12868.00
2019-02-23T09:42:28.066Z,14152.00
2019-02-23T09:43:28.208Z,11768.00
2019-02-23T09:44:38.729Z,12592.00
2019-02-23T09:45:28.089Z,10836.00
2019-02-23T09:46:32.626Z,13928.00
2019-02-23T09:47:42.677Z,13108.00
2019-02-23T09:49:06.840Z,10576.00
2019-02-23T09:49:49.793Z,11356.00
2019-02-23T09:50:59.761Z,11288.00
2019-02-23T09:51:28.038Z,12080.00
2019-02-23T09:52:27.854Z,17024.00
2019-02-23T09:53:28.041Z,19232.00
2019-02-23T09:54:30.042Z,9916.00
2019-02-23T09:55:30.637Z,10856.00
2019-02-23T09:56:42.747Z,17376.00
2019-02-23T09:57:34.628Z,11116.00
2019-02-23T09:58:31.228Z,9444.00
2019-02-23T09:59:27.883Z,11368.00
2019-02-23T10:00:28.732Z,13180.00
2019-02-23T10:01:28.835Z,14756.00
2019-02-23T10:02:30.645Z,12784.00
2019-02-23T10:03:29.706Z,11572.00
2019-02-23T10:04:28.821Z,10604.00
2019-02-23T10:06:27.746Z,32576.00
2019-02-23T10:07:28.785Z,15192.00
2019-02-23T10:08:34.648Z,16128.00
2019-02-23T10:09:59.370Z,14864.00
2019-02-23T10:10:29.837Z,10956.00
2019-02-23T10:11:38.627Z,17728.00
2019-02-23T10:12:32.231Z,16576.00
2019-02-23T10:13:27.738Z,13652.00
2019-02-23T10:17:13.210Z,19680.00
2019-02-23T10:19:57.540Z,15516.00
2019-02-23T10:21:36.153Z,20192.00
2019-02-23T10:22:30.473Z,36512.00
2019-02-23T10:23:35.077Z,25312.00
2019-02-23T10:24:30.466Z,17056.00
2019-02-23T10:25:52.030Z,35584.00
2019-02-23T10:26:45.633Z,32960.00
2019-02-23T10:29:04.602Z,34144.00
2019-02-23T10:32:39.467Z,29344.00
2019-02-23T10:33:28.818Z,33632.00
2019-02-23T10:34:56.246Z,35232.00
2019-02-23T10:35:24.374Z,33696.00
2019-02-23T10:36:56.055Z,32512.00
2019-02-23T10:37:24.994Z,32992.00
2019-02-23T10:38:25.913Z,33120.00
2019-02-23T10:39:24.440Z,32384.00
2019-02-23T10:40:25.509Z,32512.00
2019-02-23T10:41:24.386Z,33696.00
2019-02-23T10:42:25.896Z,34112.00
2019-02-23T10:43:38.934Z,33088.00
2019-02-23T10:44:56.145Z,33280.00
2019-02-23T10:47:28.529Z,33536.00
2019-02-23T10:51:20.582Z,33664.00
2019-02-23T10:51:56.603Z,33888.00
2019-02-23T10:54:16.984Z,34240.00
2019-02-23T10:58:09.375Z,34080.00
2019-02-23T11:04:50.835Z,35712.00
2019-02-23T11:19:15.367Z,39328.00
2019-02-23T11:21:22.429Z,37952.00
2019-02-23T11:22:13.864Z,36768.00
2019-02-23T11:23:15.926Z,37888.00
2019-02-23T11:24:15.522Z,40832.00
2019-02-23T11:25:13.891Z,43136.00
2019-02-23T11:27:13.918Z,44640.00
2019-02-23T11:28:13.855Z,43680.00
2019-02-23T11:29:17.071Z,42976.00
2019-02-23T11:30:16.327Z,43296.00
2019-02-23T11:31:15.485Z,43968.00
2019-02-23T11:33:13.935Z,42656.00
2019-02-23T11:34:13.839Z,39584.00
2019-02-23T11:35:16.984Z,43136.00
2019-02-23T11:36:13.877Z,47808.00
2019-02-23T11:37:14.770Z,47136.00
2019-02-23T11:38:13.775Z,46944.00
2019-02-23T11:39:16.051Z,48288.00
2019-02-23T11:40:13.907Z,49440.00
2019-02-23T11:41:13.865Z,48128.00
2019-02-23T11:42:14.437Z,48480.00
2019-02-23T11:43:13.843Z,50688.00
2019-02-23T11:44:15.870Z,51456.00
2019-02-23T11:45:15.996Z,52000.00
2019-02-23T11:46:13.912Z,52704.00
2019-02-23T11:47:13.951Z,53856.00
2019-02-23T11:48:13.831Z,55008.00
2019-02-23T11:49:14.478Z,55488.00
2019-02-23T11:50:13.818Z,54528.00
2019-02-23T11:51:15.967Z,54368.00
2019-02-23T11:52:13.934Z,56128.00
2019-02-23T11:53:15.536Z,57184.00
2019-02-23T11:54:13.940Z,56736.00
2019-02-23T11:55:13.899Z,54496.00
2019-02-23T11:56:13.903Z,56352.00
2019-02-23T11:57:13.891Z,55552.00
2019-02-23T11:58:15.430Z,59616.00
2019-02-23T11:59:15.450Z,56192.00
2019-02-23T12:00:13.902Z,56992.00
2019-02-23T12:02:14.967Z,62624.00
2019-02-23T12:45:39.238Z,61760.00
2019-02-23T12:48:20.167Z,57920.00
2019-02-23T13:15:40.739Z,7200.00
2019-02-23T13:16:52.720Z,8096.00
2019-02-23T13:17:41.048Z,5876.00
2019-02-23T13:18:38.941Z,4752.00
2019-02-23T13:19:44.746Z,5964.00
2019-02-23T13:20:37.728Z,5592.00
2019-02-23T13:21:37.975Z,4960.00
2019-02-23T13:22:38.766Z,5108.00
2019-02-23T13:23:39.806Z,4720.00
2019-02-23T13:24:37.781Z,4512.00
2019-02-23T13:25:37.779Z,4376.00
2019-02-23T13:26:37.660Z,4180.00
2019-02-23T13:27:37.776Z,4040.00
2019-02-23T13:28:42.365Z,4108.00
2019-02-23T13:29:37.919Z,4304.00
2019-02-23T13:30:37.966Z,4388.00
2019-02-23T13:31:37.734Z,4304.00
2019-02-23T13:32:39.331Z,4436.00
2019-02-23T13:33:37.835Z,4376.00
2019-02-23T13:34:37.747Z,4296.00
2019-02-23T13:35:44.310Z,4172.00
2019-02-23T13:36:38.314Z,4028.00
2019-02-23T13:37:38.600Z,3924.00
2019-02-23T13:38:42.462Z,3796.00
2019-02-23T13:39:37.683Z,4012.00
2019-02-23T13:40:37.689Z,4540.00
2019-02-23T13:41:37.983Z,7100.00
2019-02-23T13:42:37.790Z,17440.00
2019-02-23T13:43:38.330Z,17536.00
2019-02-23T13:44:37.684Z,20992.00
2019-02-23T13:45:38.439Z,21856.00
2019-02-23T13:47:37.703Z,23808.00
2019-02-23T13:48:37.661Z,24064.00
2019-02-23T13:52:47.916Z,20416.00
2019-02-23T13:55:37.992Z,22624.00
2019-02-23T13:56:28.753Z,23072.00
2019-02-23T14:00:04.052Z,20288.00
2019-02-23T14:01:00.781Z,20192.00
2019-02-23T14:03:04.083Z,19296.00
2019-02-23T14:03:54.612Z,18304.00
2019-02-23T14:05:00.661Z,19072.00
2019-02-23T14:05:54.464Z,19520.00
2019-02-23T14:06:55.574Z,19808.00
2019-02-23T14:07:53.916Z,18496.00
2019-02-23T14:08:56.570Z,14880.00
2019-02-23T14:09:56.322Z,12772.00
2019-02-23T14:11:00.469Z,9632.00
2019-02-23T14:11:54.323Z,8352.00
2019-02-23T14:12:53.972Z,8276.00
2019-02-23T14:13:58.573Z,5472.00
2019-02-23T14:14:58.346Z,7428.00
2019-02-23T14:16:14.700Z,8624.00
2019-02-23T14:16:53.983Z,5608.00
2019-02-23T14:17:53.804Z,4372.00
2019-02-23T14:18:54.320Z,3608.00
2019-02-23T14:19:55.314Z,3500.00
2019-02-23T14:21:58.422Z,4600.00
2019-02-23T14:23:14.611Z,6364.00
2019-02-23T14:28:03.251Z,4912.00
2019-02-23T14:28:51.488Z,4612.00
2019-02-23T14:30:06.387Z,4628.00
2019-02-23T14:31:12.604Z,5588.00
2019-02-23T14:31:54.483Z,6692.00
2019-02-23T14:32:58.292Z,6680.00
2019-02-23T14:33:51.428Z,5216.00
2019-02-23T14:34:53.360Z,3940.00
2019-02-23T14:36:12.320Z,3396.00
2019-02-23T14:36:52.241Z,3084.00
2019-02-23T14:37:51.479Z,2996.00
2019-02-23T14:38:53.203Z,2888.00
2019-02-23T14:39:53.468Z,2840.00
2019-02-23T14:40:53.424Z,2756.00
2019-02-23T14:41:53.376Z,2640.00
2019-02-23T14:42:51.407Z,2548.00
2019-02-23T14:44:19.433Z,2424.00
2019-02-23T14:44:52.299Z,2324.00
2019-02-23T14:46:51.820Z,2164.00
2019-02-23T14:47:55.793Z,2100.00
2019-02-23T14:48:51.351Z,2040.00
2019-02-23T14:49:53.960Z,1996.00
2019-02-23T14:50:51.305Z,1952.00
2019-02-23T14:51:59.465Z,1896.00
2019-02-23T14:55:19.416Z,1728.00
2019-02-23T14:56:07.584Z,1692.00
2019-02-23T14:59:25.952Z,1428.00
2019-02-23T15:00:35.518Z,1336.00
2019-02-23T15:01:47.419Z,1256.00
2019-02-23T15:02:27.347Z,1192.00
2019-02-23T15:03:24.722Z,1128.00
2019-02-23T15:04:31.369Z,1060.00
2019-02-23T15:05:45.685Z,996.00
2019-02-23T15:07:27.471Z,900.00
2019-02-23T15:08:24.738Z,868.00
2019-02-23T15:09:25.534Z,836.00
2019-02-23T15:10:24.690Z,800.00
2019-02-23T15:11:25.534Z,764.00
2019-02-23T15:12:24.561Z,724.00
2019-02-23T15:13:24.585Z,684.00
2019-02-23T15:14:25.952Z,644.00
2019-02-23T15:17:59.577Z,520.00
2019-02-23T15:22:23.090Z,404.00
2019-02-23T15:23:13.100Z,380.00
2019-02-23T15:24:11.257Z,360.00
2019-02-23T15:25:13.472Z,340.00
2019-02-23T15:26:13.144Z,320.00
2019-02-23T15:27:11.176Z,300.00
2019-02-23T15:33:49.257Z,208.00